الصفحة الرئيسية
METAR-TAF:

METAR-TAF

مطار :

مطار فيينا الدولي

فيينا, النمسا

دائرة عرض: 48-07N, خط طول: 016-34E, ارتفاع: 183 متر

مراقبة الطقس الحالي

تاريخ ووقت الإصدار 29 دقيقة قبل الساعة 01:20UTC
ريح 7 عقدة من الشمال/الشمال الغربي
درجة الحرارة 21°درجة مئوية
الرطوبة 64%
ضغط 1022 hPa
الرؤية 10 كم أو أكثر
الغيوم لا تقل 1500 م ولا وجود لمزنة ركامية السحاب الأسود

METAR: LOWW 180120Z 33007KT CAVOK 21/14 Q1022 NOSIG

زمن: 03:49 (01:49 UTC)

توقعات

تاريخ ووقت الإصدار 2ساعات و 34 دقيقة قبل الساعة 23:15UTC
التوقعات صالحة من18 الساعة 00 UTC إلى 19 الساعة 06 UTC
ريح 10 عقدة من الشمال
الرؤية 10 كم أو أكثر
الغيوم لا تقل 1500 م ولا وجود لمزنة ركامية السحاب الأسود
أصبح
من 18 الساعة 19 UTC إلى 18 الساعة 21 UTC
ريح 5 عقدة من الشمال

TAF: LOWW 172315Z 1800/1906 35010KT CAVOK TX31/1814Z TN19/1904Z BECMG 1819/1821 36005KT

أرصاد الطقس والتوقعات من أكثر من 4000 مطار (تقارير الطقس للمطار METAR والتنبؤ بالطقس بالمطارTAF).

المحطات المتاحة هي النقط الصفراء والحمراء على الخريطة.

حرك المؤشر فوق النقطة لمعرفة اسم المحطة.

ثم انقر لمعرفة أرصاد وتوقعات الطقس.

لتغيير الخارطة: اضغط على الأزرار الخضراء مع رمز الصليب الأسود للتكبير. على الزر الأخضر مع شرطة للتصغير، أو على الأسهم الخضراء للخرائط المجاورة.


METAR-TAF: